sensor_id;sensor_type;location;lat;lon;timestamp;P1;durP1;ratioP1;P2;durP2;ratioP2
71902;SDS011;59778;50.310;18.780;2022-12-07T00:09:48;59.73;;;23.73;;
71902;SDS011;59778;50.310;18.780;2022-12-07T00:25:10;55.80;;;22.87;;
71902;SDS011;59778;50.310;18.780;2022-12-07T00:40:31;53.70;;;22.23;;
71902;SDS011;59778;50.310;18.780;2022-12-07T00:55:53;63.03;;;24.33;;
71902;SDS011;59778;50.310;18.780;2022-12-07T01:11:15;75.23;;;27.27;;
71902;SDS011;59778;50.310;18.780;2022-12-07T01:26:38;60.00;;;26.00;;
71902;SDS011;59778;50.310;18.780;2022-12-07T01:41:59;63.37;;;26.63;;
71902;SDS011;59778;50.310;18.780;2022-12-07T01:57:20;59.30;;;24.37;;
71902;SDS011;59778;50.310;18.780;2022-12-07T02:12:42;53.83;;;21.73;;
71902;SDS011;59778;50.310;18.780;2022-12-07T02:44:24;44.50;;;18.90;;
71902;SDS011;59778;50.310;18.780;2022-12-07T02:59:57;42.80;;;16.70;;
71902;SDS011;59778;50.310;18.780;2022-12-07T03:15:35;36.43;;;15.17;;
71902;SDS011;59778;50.310;18.780;2022-12-07T04:02:13;39.20;;;15.70;;
71902;SDS011;59778;50.310;18.780;2022-12-07T04:17:36;39.10;;;15.53;;
71902;SDS011;59778;50.310;18.780;2022-12-07T04:32:57;44.67;;;17.83;;
71902;SDS011;59778;50.310;18.780;2022-12-07T04:48:19;49.93;;;17.47;;
71902;SDS011;59778;50.310;18.780;2022-12-07T05:03:40;42.67;;;15.73;;
71902;SDS011;59778;50.310;18.780;2022-12-07T05:19:01;50.40;;;19.53;;
71902;SDS011;59778;50.310;18.780;2022-12-07T05:34:23;50.27;;;17.33;;
71902;SDS011;59778;50.310;18.780;2022-12-07T05:49:45;39.47;;;15.70;;
71902;SDS011;59778;50.310;18.780;2022-12-07T06:05:06;48.83;;;18.20;;
71902;SDS011;59778;50.310;18.780;2022-12-07T06:20:28;49.00;;;18.00;;
71902;SDS011;59778;50.310;18.780;2022-12-07T06:35:49;54.10;;;19.10;;
71902;SDS011;59778;50.310;18.780;2022-12-07T06:51:10;38.90;;;16.47;;
71902;SDS011;59778;50.310;18.780;2022-12-07T07:06:32;34.00;;;15.77;;
71902;SDS011;59778;50.310;18.780;2022-12-07T07:21:53;39.80;;;15.47;;
71902;SDS011;59778;50.310;18.780;2022-12-07T07:37:14;40.83;;;18.93;;
71902;SDS011;59778;50.310;18.780;2022-12-07T07:52:35;32.67;;;10.80;;
71902;SDS011;59778;50.310;18.780;2022-12-07T08:07:57;35.30;;;15.57;;
71902;SDS011;59778;50.310;18.780;2022-12-07T08:23:18;49.00;;;17.63;;
71902;SDS011;59778;50.310;18.780;2022-12-07T08:38:40;30.10;;;14.87;;
71902;SDS011;59778;50.310;18.780;2022-12-07T08:54:03;38.57;;;17.53;;
71902;SDS011;59778;50.310;18.780;2022-12-07T09:09:28;41.80;;;17.77;;
71902;SDS011;59778;50.310;18.780;2022-12-07T09:24:49;48.77;;;22.13;;
71902;SDS011;59778;50.310;18.780;2022-12-07T09:40:11;54.00;;;25.30;;
71902;SDS011;59778;50.310;18.780;2022-12-07T09:55:33;61.33;;;26.27;;
71902;SDS011;59778;50.310;18.780;2022-12-07T10:10:56;61.77;;;26.03;;
71902;SDS011;59778;50.310;18.780;2022-12-07T10:26:26;62.97;;;28.10;;
71902;SDS011;59778;50.310;18.780;2022-12-07T10:41:54;50.40;;;23.07;;
71902;SDS011;59778;50.310;18.780;2022-12-07T10:57:27;38.67;;;16.30;;
71902;SDS011;59778;50.310;18.780;2022-12-07T11:30:02;23.27;;;12.30;;
71902;SDS011;59778;50.310;18.780;2022-12-07T11:45:12;29.07;;;11.80;;
71902;SDS011;59778;50.310;18.780;2022-12-07T12:00:37;18.40;;;8.23;;
71902;SDS011;59778;50.310;18.780;2022-12-07T12:31:46;25.87;;;9.57;;
71902;SDS011;59778;50.310;18.780;2022-12-07T13:03:28;12.17;;;5.43;;
71902;SDS011;59778;50.310;18.780;2022-12-07T13:18:51;12.40;;;6.33;;
71902;SDS011;59778;50.310;18.780;2022-12-07T13:49:56;14.53;;;6.63;;
71902;SDS011;59778;50.310;18.780;2022-12-07T14:05:25;27.33;;;10.57;;
71902;SDS011;59778;50.310;18.780;2022-12-07T14:20:50;24.20;;;9.77;;
71902;SDS011;59778;50.310;18.780;2022-12-07T14:36:12;23.03;;;8.07;;
71902;SDS011;59778;50.310;18.780;2022-12-07T14:51:34;26.33;;;10.23;;
71902;SDS011;59778;50.310;18.780;2022-12-07T15:07:00;22.00;;;8.93;;
71902;SDS011;59778;50.310;18.780;2022-12-07T15:22:23;25.87;;;11.07;;
71902;SDS011;59778;50.310;18.780;2022-12-07T15:37:46;32.70;;;12.43;;
71902;SDS011;59778;50.310;18.780;2022-12-07T15:53:08;23.13;;;9.67;;
71902;SDS011;59778;50.310;18.780;2022-12-07T16:08:29;31.50;;;13.50;;
71902;SDS011;59778;50.310;18.780;2022-12-07T16:23:50;25.37;;;11.67;;
71902;SDS011;59778;50.310;18.780;2022-12-07T16:39:12;35.60;;;13.87;;
71902;SDS011;59778;50.310;18.780;2022-12-07T16:54:33;33.63;;;13.77;;
71902;SDS011;59778;50.310;18.780;2022-12-07T17:09:55;34.93;;;15.33;;
71902;SDS011;59778;50.310;18.780;2022-12-07T17:25:17;35.93;;;12.97;;
71902;SDS011;59778;50.310;18.780;2022-12-07T17:40:39;29.40;;;12.67;;
71902;SDS011;59778;50.310;18.780;2022-12-07T17:56:00;33.23;;;13.47;;
71902;SDS011;59778;50.310;18.780;2022-12-07T18:11:22;37.30;;;13.20;;
71902;SDS011;59778;50.310;18.780;2022-12-07T18:26:44;36.07;;;12.87;;
71902;SDS011;59778;50.310;18.780;2022-12-07T18:42:07;32.17;;;14.10;;
71902;SDS011;59778;50.310;18.780;2022-12-07T18:57:30;29.80;;;13.40;;
71902;SDS011;59778;50.310;18.780;2022-12-07T19:12:53;35.37;;;13.50;;
71902;SDS011;59778;50.310;18.780;2022-12-07T19:28:14;32.73;;;14.80;;
71902;SDS011;59778;50.310;18.780;2022-12-07T19:43:37;33.97;;;13.73;;
71902;SDS011;59778;50.310;18.780;2022-12-07T19:58:59;35.07;;;15.23;;
71902;SDS011;59778;50.310;18.780;2022-12-07T20:14:23;34.90;;;14.07;;
71902;SDS011;59778;50.310;18.780;2022-12-07T20:29:44;33.27;;;16.27;;
71902;SDS011;59778;50.310;18.780;2022-12-07T20:45:06;58.87;;;21.57;;
71902;SDS011;59778;50.310;18.780;2022-12-07T21:00:28;40.03;;;15.63;;
71902;SDS011;59778;50.310;18.780;2022-12-07T21:15:50;38.37;;;15.87;;
71902;SDS011;59778;50.310;18.780;2022-12-07T21:31:11;40.40;;;15.77;;
71902;SDS011;59778;50.310;18.780;2022-12-07T21:46:32;49.97;;;20.03;;
71902;SDS011;59778;50.310;18.780;2022-12-07T22:01:54;57.53;;;21.50;;
71902;SDS011;59778;50.310;18.780;2022-12-07T22:17:15;41.13;;;16.60;;
71902;SDS011;59778;50.310;18.780;2022-12-07T22:32:37;32.60;;;12.33;;
71902;SDS011;59778;50.310;18.780;2022-12-07T22:47:58;28.63;;;11.33;;
71902;SDS011;59778;50.310;18.780;2022-12-07T23:03:20;28.57;;;12.20;;
71902;SDS011;59778;50.310;18.780;2022-12-07T23:18:41;29.93;;;12.10;;
71902;SDS011;59778;50.310;18.780;2022-12-07T23:34:02;30.70;;;12.57;;
71902;SDS011;59778;50.310;18.780;2022-12-07T23:49:24;27.47;;;11.07;;
